createdAt,value
2023-04-15T00:01:00.025Z,94292.47
2023-04-15T00:03:28.979Z,94320.81
2023-04-15T00:06:00.161Z,94317.38
2023-04-15T00:08:28.368Z,94317.03
2023-04-15T00:10:56.624Z,94321.16
2023-04-15T00:13:26.146Z,94203.09
2023-04-15T00:15:54.412Z,94337.16
2023-04-15T00:18:23.092Z,94320.97
2023-04-15T00:20:51.243Z,94353.38
2023-04-15T00:23:19.237Z,94352.66
2023-04-15T00:25:47.372Z,94343.44
2023-04-15T00:28:15.583Z,94341.97
2023-04-15T00:30:45.921Z,94337.78
2023-04-15T00:33:14.493Z,94346.44
2023-04-15T00:35:42.603Z,94346.44
2023-04-15T00:38:11.982Z,94339.84
2023-04-15T00:40:40.083Z,94270.78
2023-04-15T00:43:08.303Z,94342.13
2023-04-15T00:45:36.178Z,94343.03
2023-04-15T00:48:07.151Z,94348.28
2023-04-15T00:50:35.622Z,94362.34
2023-04-15T00:53:03.826Z,94354.91
2023-04-15T00:55:31.807Z,94365.38
2023-04-15T00:57:59.957Z,94367.63
2023-04-15T01:00:28.088Z,94356.94
2023-04-15T01:02:56.284Z,94360.59
2023-04-15T01:05:27.237Z,94359.38
2023-04-15T01:07:56.995Z,94344.53
2023-04-15T01:10:25.327Z,94355.75
2023-04-15T01:12:53.753Z,94349.81
2023-04-15T01:15:21.985Z,94350.63
2023-04-15T01:17:50.271Z,94349.63
2023-04-15T01:20:18.578Z,94335.66
2023-04-15T01:22:48.338Z,94343.47
2023-04-15T01:25:20.495Z,94337.50
2023-04-15T01:27:49.888Z,94328.19
2023-04-15T01:30:17.856Z,94335.69
2023-04-15T01:32:46.465Z,94331.50
2023-04-15T01:35:15.644Z,94347.97
2023-04-15T01:37:44.198Z,94336.88
2023-04-15T01:40:14.107Z,94345.25
2023-04-15T01:42:42.546Z,94347.34
2023-04-15T01:45:13.410Z,94338.94
2023-04-15T01:47:42.131Z,94348.06
2023-04-15T01:50:10.946Z,94349.38
2023-04-15T01:52:39.225Z,94351.47
2023-04-15T01:55:08.581Z,94351.75
2023-04-15T01:57:37.156Z,94359.19
2023-04-15T02:00:07.759Z,94360.00
2023-04-15T02:02:37.580Z,94350.09
2023-04-15T02:05:06.678Z,94366.50
2023-04-15T02:07:34.807Z,94375.69
2023-04-15T02:10:03.291Z,94367.97
2023-04-15T02:12:31.422Z,94361.56
2023-04-15T02:14:59.636Z,94364.88
2023-04-15T02:17:27.814Z,94359.00
2023-04-15T02:19:59.490Z,94350.63
2023-04-15T02:22:28.127Z,94351.50
2023-04-15T02:24:56.146Z,94345.81
2023-04-15T02:27:24.244Z,94341.88
2023-04-15T02:29:52.516Z,94336.97
2023-04-15T02:32:23.725Z,94265.44
2023-04-15T02:34:52.007Z,94345.53
2023-04-15T02:37:21.852Z,94334.97
2023-04-15T02:39:50.230Z,94334.28
2023-04-15T02:42:18.059Z,94337.53
2023-04-15T02:44:46.574Z,94339.00
2023-04-15T02:47:15.052Z,94352.41
2023-04-15T02:49:45.056Z,94371.00
2023-04-15T02:52:14.204Z,94374.13
2023-04-15T02:54:43.651Z,94358.41
2023-04-15T02:57:13.055Z,94345.56
2023-04-15T02:59:41.316Z,94359.53
2023-04-15T03:02:09.633Z,94384.84
2023-04-15T03:04:37.743Z,94371.94
2023-04-15T03:07:06.039Z,94364.88
2023-04-15T03:09:34.115Z,94370.09
2023-04-15T03:12:04.160Z,94368.38
2023-04-15T03:14:33.277Z,94373.75
2023-04-15T03:17:01.247Z,94367.84
2023-04-15T03:19:30.432Z,94379.91
2023-04-15T03:21:58.848Z,94343.19
2023-04-15T03:24:27.424Z,94374.09
2023-04-15T03:26:55.751Z,94385.13
2023-04-15T03:29:25.201Z,94392.88
2023-04-15T03:31:54.147Z,94394.38
2023-04-15T03:34:22.526Z,94402.63
2023-04-15T03:36:51.097Z,94401.25
2023-04-15T03:39:20.441Z,94393.63
2023-04-15T03:41:48.415Z,94397.50
2023-04-15T03:44:16.532Z,94416.59
2023-04-15T03:46:46.411Z,94414.78
2023-04-15T03:49:15.499Z,94411.66
2023-04-15T03:51:43.603Z,94421.75
2023-04-15T03:54:11.867Z,94412.72
2023-04-15T03:56:39.954Z,94430.09
2023-04-15T03:59:08.041Z,94442.16
2023-04-15T04:01:36.480Z,94424.88
2023-04-15T04:04:05.893Z,94423.13
2023-04-15T04:06:34.888Z,94429.69
2023-04-15T04:09:03.223Z,94433.66
2023-04-15T04:11:31.827Z,94447.63
2023-04-15T04:14:00.132Z,94440.31
2023-04-15T04:16:29.565Z,94443.75
2023-04-15T04:18:57.935Z,94432.13
2023-04-15T04:21:29.677Z,94428.69
2023-04-15T04:23:59.120Z,94430.38
2023-04-15T04:26:27.308Z,94435.81
2023-04-15T04:28:55.240Z,94403.63
2023-04-15T04:31:23.331Z,94443.50
2023-04-15T04:33:51.673Z,94445.66
2023-04-15T04:36:20.230Z,94440.81
2023-04-15T04:38:49.786Z,94445.97
2023-04-15T04:41:17.984Z,94447.53
2023-04-15T04:43:46.185Z,94434.22
2023-04-15T04:46:14.476Z,94454.22
2023-04-15T04:48:42.442Z,94439.94
2023-04-15T04:51:10.892Z,94444.28
2023-04-15T04:53:40.283Z,94453.19
2023-04-15T04:56:11.444Z,94450.59
2023-04-15T04:58:39.709Z,94451.41
2023-04-15T05:01:07.944Z,94455.72
2023-04-15T05:03:37.746Z,94473.94
2023-04-15T05:06:08.782Z,94461.72
2023-04-15T05:08:39.924Z,94475.00
2023-04-15T05:11:09.063Z,94475.63
2023-04-15T05:13:39.164Z,94476.19
2023-04-15T05:16:07.790Z,94494.78
2023-04-15T05:18:35.788Z,94495.13
2023-04-15T05:21:04.217Z,94486.53
2023-04-15T05:23:32.247Z,94498.03
2023-04-15T05:26:00.228Z,94499.88
2023-04-15T05:28:28.520Z,94504.09
2023-04-15T05:30:57.892Z,94502.63
2023-04-15T05:33:26.048Z,94500.69
2023-04-15T05:35:54.153Z,94493.94
2023-04-15T05:38:22.302Z,94497.53
2023-04-15T05:40:50.338Z,94485.53
2023-04-15T05:43:18.570Z,94487.31
2023-04-15T05:45:46.812Z,94487.28
2023-04-15T05:48:16.435Z,94494.50
2023-04-15T05:50:45.004Z,94443.03
2023-04-15T05:53:13.536Z,94485.38
2023-04-15T05:55:41.937Z,94494.13
2023-04-15T05:58:10.714Z,94497.03
2023-04-15T06:00:38.838Z,94496.91
2023-04-15T06:03:07.919Z,94500.19
2023-04-15T06:05:37.564Z,94509.38
2023-04-15T06:08:05.875Z,94513.22
2023-04-15T06:10:36.729Z,94505.06
2023-04-15T06:13:05.217Z,94509.00
2023-04-15T06:15:33.358Z,94503.00
2023-04-15T06:18:03.381Z,94497.81
2023-04-15T06:20:31.440Z,94511.78
2023-04-15T06:23:01.398Z,94502.47
2023-04-15T06:25:29.656Z,94513.88
2023-04-15T06:27:57.722Z,94506.03
2023-04-15T06:30:27.148Z,94524.53
2023-04-15T06:32:56.735Z,94519.78
2023-04-15T06:35:25.161Z,94523.44
2023-04-15T06:37:52.979Z,94461.44
2023-04-15T06:40:22.699Z,94529.31
2023-04-15T06:42:50.743Z,94528.94
2023-04-15T06:45:19.145Z,94538.19
2023-04-15T06:47:47.128Z,94539.28
2023-04-15T06:50:15.393Z,94543.41
2023-04-15T06:52:44.402Z,94539.38
2023-04-15T06:55:12.809Z,94540.44
2023-04-15T06:57:43.394Z,94539.47
2023-04-15T07:00:13.195Z,94541.88
2023-04-15T07:02:41.327Z,94551.63
2023-04-15T07:05:10.160Z,94551.81
2023-04-15T07:07:38.536Z,94544.22
2023-04-15T07:10:08.137Z,94550.47
2023-04-15T07:12:36.743Z,94548.88
2023-04-15T07:15:07.395Z,94550.06
2023-04-15T07:17:35.501Z,94547.88
2023-04-15T07:20:05.196Z,94545.59
2023-04-15T07:22:33.385Z,94539.09
2023-04-15T07:25:01.335Z,94540.56
2023-04-15T07:27:29.745Z,94532.53
2023-04-15T07:29:57.772Z,94539.34
2023-04-15T07:32:29.948Z,94559.13
2023-04-15T07:34:58.535Z,94551.41
2023-04-15T07:37:26.534Z,94559.72
2023-04-15T07:39:54.897Z,94549.03
2023-04-15T07:42:24.484Z,94554.97
2023-04-15T07:44:53.622Z,94548.31
2023-04-15T07:47:22.233Z,94536.16
2023-04-15T07:49:52.720Z,94550.09
2023-04-15T07:52:21.106Z,94561.72
2023-04-15T07:54:49.364Z,94559.53
2023-04-15T07:57:18.647Z,94564.22
2023-04-15T07:59:46.872Z,94561.72
2023-04-15T08:02:16.303Z,94572.78
2023-04-15T08:04:44.599Z,94568.56
2023-04-15T08:07:14.162Z,94564.09
2023-04-15T08:09:42.114Z,94560.09
2023-04-15T08:12:13.508Z,94566.16
2023-04-15T08:14:41.552Z,94565.44
2023-04-15T08:17:09.640Z,94568.94
2023-04-15T08:19:37.913Z,94572.41
2023-04-15T08:22:06.050Z,94546.63
2023-04-15T08:24:40.822Z,94569.69
2023-04-15T08:27:09.142Z,94565.06
2023-04-15T08:29:37.422Z,94569.94
2023-04-15T08:32:06.513Z,94559.84
2023-04-15T08:34:35.120Z,94561.47
2023-04-15T08:37:03.032Z,94559.41
2023-04-15T08:39:30.995Z,94561.97
2023-04-15T08:42:03.622Z,94560.38
2023-04-15T08:44:34.685Z,94549.47
2023-04-15T08:47:03.963Z,94556.88
2023-04-15T08:49:33.358Z,94558.56
2023-04-15T08:52:01.647Z,94553.13
2023-04-15T08:54:29.936Z,94549.16
2023-04-15T08:57:00.511Z,94551.28
2023-04-15T08:59:28.792Z,94545.41
2023-04-15T09:02:01.403Z,94553.47
2023-04-15T09:04:29.973Z,94536.88
2023-04-15T09:06:58.862Z,94519.59
2023-04-15T09:09:26.840Z,94522.03
2023-04-15T09:11:54.895Z,94541.97
2023-04-15T09:14:25.936Z,94527.53
2023-04-15T09:17:02.074Z,94513.03
2023-04-15T09:19:30.071Z,94509.53
2023-04-15T09:21:59.641Z,94501.66
2023-04-15T09:24:37.543Z,94496.41
2023-04-15T09:27:06.402Z,94497.41
2023-04-15T09:29:37.383Z,94498.88
2023-04-15T09:32:12.694Z,94507.81
2023-04-15T09:34:42.216Z,94501.59
2023-04-15T09:37:11.105Z,94508.31
2023-04-15T09:39:52.131Z,94503.13
2023-04-15T09:42:24.566Z,94516.31
2023-04-15T09:44:56.243Z,94519.78
2023-04-15T09:47:31.612Z,94507.88
2023-04-15T09:50:01.138Z,94509.81
2023-04-15T09:52:29.557Z,94511.69
2023-04-15T09:54:59.666Z,94486.31
2023-04-15T09:57:36.219Z,94525.63
2023-04-15T10:00:06.578Z,94516.66
2023-04-15T10:02:35.158Z,94496.22
2023-04-15T10:05:04.716Z,94505.09
2023-04-15T10:07:34.092Z,94503.94
2023-04-15T10:10:03.762Z,94504.91
2023-04-15T10:12:33.667Z,94506.19
2023-04-15T10:15:07.192Z,94509.47
2023-04-15T10:17:37.382Z,94425.06
2023-04-15T10:20:07.698Z,94498.47
2023-04-15T10:22:37.002Z,94493.28
2023-04-15T10:25:06.306Z,94493.94
2023-04-15T10:27:35.003Z,94487.22
2023-04-15T10:30:04.233Z,94477.50
2023-04-15T10:32:34.213Z,94481.50
2023-04-15T10:35:04.396Z,94471.31
2023-04-15T10:37:37.571Z,94483.69
2023-04-15T10:40:28.484Z,94467.97
2023-04-15T10:42:57.437Z,94464.53
2023-04-15T10:45:28.470Z,94468.56
2023-04-15T10:48:00.957Z,94468.06
2023-04-15T10:50:32.795Z,94464.88
2023-04-15T10:53:05.035Z,94459.13
2023-04-15T10:55:34.710Z,94466.59
2023-04-15T10:58:03.919Z,94459.13
2023-04-15T11:00:33.231Z,94466.88
2023-04-15T11:03:07.976Z,94466.81
2023-04-15T11:05:53.092Z,94459.56
2023-04-15T11:08:22.164Z,94461.94
2023-04-15T11:10:54.953Z,94461.53
2023-04-15T11:13:25.949Z,94477.66
2023-04-15T11:16:02.428Z,94466.91
2023-04-15T11:18:34.475Z,94467.41
2023-04-15T11:21:08.020Z,94452.25
2023-04-15T11:23:38.508Z,94469.63
2023-04-15T11:26:09.977Z,94451.97
2023-04-15T11:28:39.232Z,94455.13
2023-04-15T11:31:10.921Z,94469.38
2023-04-15T11:33:46.743Z,94432.13
2023-04-15T11:36:15.291Z,94459.78
2023-04-15T11:38:50.345Z,94453.41
2023-04-15T11:41:22.452Z,94456.88
2023-04-15T11:43:50.628Z,94407.25
2023-04-15T11:46:18.850Z,94456.88
2023-04-15T11:48:48.843Z,94444.28
2023-04-15T11:51:16.937Z,94445.31
2023-04-15T11:53:47.288Z,94444.75
2023-04-15T11:56:20.535Z,94420.63
2023-04-15T11:58:50.853Z,94436.13
2023-04-15T12:01:20.201Z,94439.28
2023-04-15T12:03:51.954Z,94380.91
2023-04-15T12:06:21.542Z,94435.84
2023-04-15T12:09:12.735Z,94438.34
2023-04-15T12:11:43.262Z,94443.47
2023-04-15T12:14:14.427Z,94436.13
2023-04-15T12:16:48.747Z,94438.19
2023-04-15T12:19:24.557Z,94413.88
2023-04-15T12:21:53.579Z,94439.88
2023-04-15T12:24:23.908Z,94436.81
2023-04-15T12:26:54.255Z,94427.47
2023-04-15T12:29:26.329Z,94429.13
2023-04-15T12:31:55.795Z,94437.31
2023-04-15T12:34:30.943Z,94363.59
2023-04-15T12:37:00.882Z,94405.56
2023-04-15T12:39:31.368Z,94436.13
2023-04-15T12:42:02.220Z,94440.56
2023-04-15T12:44:30.943Z,94452.59
2023-04-15T12:47:00.037Z,94444.09
2023-04-15T12:49:30.855Z,94423.03
2023-04-15T12:52:00.902Z,94439.19
2023-04-15T12:54:32.475Z,94438.31
2023-04-15T12:57:01.204Z,94414.19
2023-04-15T12:59:29.752Z,94446.72
2023-04-15T13:01:58.707Z,94447.78
2023-04-15T13:04:30.698Z,94452.50
2023-04-15T13:07:00.363Z,94417.47
2023-04-15T13:09:28.322Z,94430.38
2023-04-15T13:11:57.764Z,94439.34
2023-04-15T13:14:26.069Z,94455.75
2023-04-15T13:16:54.014Z,94442.47
2023-04-15T13:19:22.345Z,94440.88
2023-04-15T13:21:50.716Z,94438.66
2023-04-15T13:24:20.349Z,94429.59
2023-04-15T13:26:50.099Z,94437.13
2023-04-15T13:29:18.475Z,94433.69
2023-04-15T13:31:46.452Z,94438.16
2023-04-15T13:34:16.548Z,94440.19
2023-04-15T13:36:44.488Z,94424.28
2023-04-15T13:39:12.333Z,94438.81
2023-04-15T13:41:41.761Z,94414.31
2023-04-15T13:44:09.657Z,94432.94
2023-04-15T13:46:37.988Z,94437.59
2023-04-15T13:49:06.279Z,94428.00
2023-04-15T13:51:36.152Z,94426.59
2023-04-15T13:54:04.326Z,94418.06
2023-04-15T13:56:32.333Z,94415.31
2023-04-15T13:59:03.373Z,94424.47
2023-04-15T14:01:31.581Z,94412.94
2023-04-15T14:03:59.829Z,94411.66
2023-04-15T14:06:28.691Z,94420.13
2023-04-15T14:08:56.810Z,94428.03
2023-04-15T14:11:24.814Z,94423.28
2023-04-15T14:13:53.083Z,94420.88
2023-04-15T14:16:22.772Z,94425.16
2023-04-15T14:18:51.025Z,94422.09
2023-04-15T14:21:19.190Z,94417.50
2023-04-15T14:23:47.168Z,94425.34
2023-04-15T14:26:15.128Z,94408.50
2023-04-15T14:28:45.110Z,94415.31
2023-04-15T14:31:14.473Z,94426.34
2023-04-15T14:33:45.837Z,94411.63
2023-04-15T14:36:14.366Z,94410.88
2023-04-15T14:38:42.273Z,94413.97
2023-04-15T14:41:11.127Z,94421.28
2023-04-15T14:43:39.230Z,94425.94
2023-04-15T14:46:08.645Z,94425.66
2023-04-15T14:48:37.046Z,94415.41
2023-04-15T14:51:07.130Z,94427.03
2023-04-15T14:53:35.217Z,94421.50
2023-04-15T14:56:03.360Z,94433.56
2023-04-15T14:58:31.412Z,94426.88
2023-04-15T15:00:59.367Z,94423.34
2023-04-15T15:03:27.691Z,94421.75
2023-04-15T15:05:56.137Z,94411.06
2023-04-15T15:08:25.741Z,94419.53
2023-04-15T15:10:53.723Z,94419.63
2023-04-15T15:13:21.877Z,94417.00
2023-04-15T15:15:50.320Z,94419.91
2023-04-15T15:18:20.257Z,94414.94
2023-04-15T15:20:48.576Z,94348.00
2023-04-15T15:23:16.470Z,94417.31
2023-04-15T15:25:47.352Z,94413.69
2023-04-15T15:28:15.764Z,94417.22
2023-04-15T15:30:43.717Z,94420.75
2023-04-15T15:33:11.924Z,94406.09
2023-04-15T15:35:41.265Z,94397.91
2023-04-15T15:38:09.657Z,94406.09
2023-04-15T15:40:37.675Z,94410.81
2023-04-15T15:43:07.342Z,94407.84
2023-04-15T15:45:36.502Z,94411.38
2023-04-15T15:48:04.750Z,94397.38
2023-04-15T15:50:33.258Z,94413.38
2023-04-15T15:53:01.449Z,94414.13
2023-04-15T15:55:29.891Z,94413.84
2023-04-15T15:57:57.863Z,94415.03
2023-04-15T16:00:27.215Z,94421.38
2023-04-15T16:03:06.779Z,94429.28
2023-04-15T16:05:36.008Z,94421.22
2023-04-15T16:08:04.006Z,94421.25
2023-04-15T16:10:32.276Z,94422.59
2023-04-15T16:13:00.434Z,94413.59
2023-04-15T16:15:29.900Z,94406.63
2023-04-15T16:17:57.928Z,94407.28
2023-04-15T16:20:26.323Z,94410.91
2023-04-15T16:22:54.404Z,94364.34
2023-04-15T16:25:22.330Z,94405.44
2023-04-15T16:27:58.707Z,94410.91
2023-04-15T16:30:30.602Z,94403.88
2023-04-15T16:32:58.814Z,94409.81
2023-04-15T16:35:26.946Z,94416.28
2023-04-15T16:37:55.021Z,94410.53
2023-04-15T16:40:22.911Z,94414.25
2023-04-15T16:42:51.157Z,94421.53
2023-04-15T16:45:19.765Z,94417.09
2023-04-15T16:47:50.001Z,94420.69
2023-04-15T16:50:18.527Z,94406.16
2023-04-15T16:52:47.025Z,94419.59
2023-04-15T16:55:15.032Z,94378.69
2023-04-15T16:58:00.920Z,94419.66
2023-04-15T17:00:31.406Z,94425.16
2023-04-15T17:03:01.700Z,94414.75
2023-04-15T17:05:31.273Z,94424.03
2023-04-15T17:07:59.430Z,94415.84
2023-04-15T17:10:27.716Z,94433.50
2023-04-15T17:12:57.207Z,94344.09
2023-04-15T17:15:26.256Z,94383.72
2023-04-15T17:17:55.986Z,94425.81
2023-04-15T17:20:26.695Z,94440.47
2023-04-15T17:22:55.479Z,94444.78
2023-04-15T17:25:24.400Z,94433.56
2023-04-15T17:27:52.547Z,94431.63
2023-04-15T17:30:20.831Z,94444.25
2023-04-15T17:32:49.048Z,94451.72
2023-04-15T17:35:17.045Z,94453.03
2023-04-15T17:37:47.417Z,94454.25
2023-04-15T17:40:16.104Z,94457.75
2023-04-15T17:42:44.391Z,94406.66
2023-04-15T17:45:13.523Z,94454.28
2023-04-15T17:47:41.863Z,94456.53
2023-04-15T17:50:10.551Z,94467.19
2023-04-15T17:52:38.401Z,94466.22
2023-04-15T17:55:10.317Z,94469.91
2023-04-15T17:57:39.079Z,94465.19
2023-04-15T18:00:10.187Z,94476.09
2023-04-15T18:02:38.822Z,94487.00
2023-04-15T18:05:07.863Z,94484.56
2023-04-15T18:07:36.171Z,94479.59
2023-04-15T18:10:04.263Z,94480.56
2023-04-15T18:12:35.092Z,94488.50
2023-04-15T18:15:04.447Z,94487.00
2023-04-15T18:17:32.733Z,94497.19
2023-04-15T18:20:01.961Z,94495.16
2023-04-15T18:22:30.107Z,94501.84
2023-04-15T18:25:05.783Z,94499.34
2023-04-15T18:27:36.238Z,94500.59
2023-04-15T18:30:04.259Z,94500.28
2023-04-15T18:32:32.925Z,94497.06
2023-04-15T18:35:01.463Z,94506.28
2023-04-15T18:37:30.296Z,94506.94
2023-04-15T18:39:58.174Z,94513.41
2023-04-15T18:42:26.759Z,94507.19
2023-04-15T18:44:56.309Z,94488.50
2023-04-15T18:47:26.483Z,94498.19
2023-04-15T18:49:55.079Z,94500.59
2023-04-15T18:52:22.984Z,94500.88
2023-04-15T18:54:51.992Z,94509.50
2023-04-15T18:57:24.570Z,94511.13
2023-04-15T19:00:02.524Z,94510.97
2023-04-15T19:02:30.777Z,94517.16
2023-04-15T19:04:58.759Z,94525.72
2023-04-15T19:07:26.754Z,94512.16
2023-04-15T19:09:54.698Z,94522.06
2023-04-15T19:12:22.662Z,94525.28
2023-04-15T19:14:50.785Z,94528.13
2023-04-15T19:17:20.642Z,94527.97
2023-04-15T19:19:48.804Z,94530.00
2023-04-15T19:22:17.369Z,94520.41
2023-04-15T19:24:45.877Z,94517.31
2023-04-15T19:27:13.817Z,94524.31
2023-04-15T19:29:42.084Z,94525.75
2023-04-15T19:32:14.015Z,94465.34
2023-04-15T19:34:43.785Z,94531.44
2023-04-15T19:37:12.903Z,94526.13
2023-04-15T19:39:41.019Z,94521.91
2023-04-15T19:42:10.437Z,94511.75
2023-04-15T19:44:42.899Z,94525.84
2023-04-15T19:47:12.228Z,94524.84
2023-04-15T19:49:40.667Z,94524.03
2023-04-15T19:52:09.972Z,94517.84
2023-04-15T19:54:38.029Z,94445.44
2023-04-15T19:57:06.018Z,94520.28
2023-04-15T19:59:34.303Z,94524.28
2023-04-15T20:02:02.827Z,94516.53
2023-04-15T20:04:31.090Z,94525.69
2023-04-15T20:06:59.555Z,94520.56
2023-04-15T20:09:29.161Z,94523.69
2023-04-15T20:12:46.714Z,94538.44
2023-04-15T20:14:51.416Z,94539.88
2023-04-15T20:17:19.540Z,94529.28
2023-04-15T20:19:47.462Z,94530.50
2023-04-15T20:22:16.097Z,94529.56
2023-04-15T20:24:45.759Z,94529.53
2023-04-15T20:27:13.771Z,94524.28
2023-04-15T20:29:42.041Z,94542.34
2023-04-15T20:32:11.701Z,94531.81
2023-04-15T20:34:41.667Z,94535.38
2023-04-15T20:37:09.776Z,94550.19
2023-04-15T20:39:39.844Z,94556.03
2023-04-15T20:42:10.719Z,94552.31
2023-04-15T20:44:39.808Z,94520.97
2023-04-15T20:47:08.429Z,94546.72
2023-04-15T20:49:37.688Z,94550.25
2023-04-15T20:52:07.016Z,94547.06
2023-04-15T20:54:35.363Z,94553.44
2023-04-15T20:57:03.942Z,94551.53
2023-04-15T20:59:34.969Z,94558.56
2023-04-15T21:02:02.974Z,94553.84
2023-04-15T21:04:31.186Z,94551.44
2023-04-15T21:06:59.264Z,94552.16
2023-04-15T21:09:29.654Z,94557.75
2023-04-15T21:12:01.504Z,94562.97
2023-04-15T21:14:31.050Z,94571.47
2023-04-15T21:17:03.450Z,94565.56
2023-04-15T21:19:31.576Z,94566.50
2023-04-15T21:21:59.512Z,94568.69
2023-04-15T21:24:28.017Z,94563.84
2023-04-15T21:26:56.635Z,94574.94
2023-04-15T21:29:24.925Z,94567.72
2023-04-15T21:31:52.901Z,94569.22
2023-04-15T21:34:23.242Z,94584.09
2023-04-15T21:36:51.161Z,94584.19
2023-04-15T21:39:19.291Z,94565.81
2023-04-15T21:41:47.237Z,94587.13
2023-04-15T21:44:15.255Z,94585.38
2023-04-15T21:46:45.957Z,94587.81
2023-04-15T21:49:14.731Z,94595.97
2023-04-15T21:51:45.845Z,94586.91
2023-04-15T21:54:14.331Z,94581.69
2023-04-15T21:56:42.526Z,94588.94
2023-04-15T21:59:10.835Z,94582.81
2023-04-15T22:01:38.751Z,94593.72
2023-04-15T22:04:07.718Z,94582.13
2023-04-15T22:06:35.776Z,94587.47
2023-04-15T22:09:05.321Z,94586.81
2023-04-15T22:11:34.917Z,94587.63
2023-04-15T22:14:02.953Z,94586.66
2023-04-15T22:16:31.015Z,94559.63
2023-04-15T22:18:58.962Z,94577.69
2023-04-15T22:21:27.093Z,94584.03
2023-04-15T22:24:34.881Z,94582.44
2023-04-15T22:26:44.997Z,94596.44
2023-04-15T22:29:13.066Z,94581.03
2023-04-15T22:31:41.725Z,94584.72
2023-04-15T22:34:09.872Z,94586.22
2023-04-15T22:36:38.292Z,94567.41
2023-04-15T22:39:06.671Z,94566.44
2023-04-15T22:41:35.310Z,94577.34
2023-04-15T22:44:04.743Z,94572.03
2023-04-15T22:46:32.701Z,94573.09
2023-04-15T22:49:01.286Z,94578.69
2023-04-15T22:51:29.405Z,94581.47
2023-04-15T22:53:57.422Z,94578.72
2023-04-15T22:56:25.559Z,94579.47
2023-04-15T22:58:54.521Z,94562.66
2023-04-15T23:01:24.028Z,94576.69
2023-04-15T23:04:01.283Z,94562.56
2023-04-15T23:06:37.391Z,94562.81
2023-04-15T23:09:06.268Z,94536.28
2023-04-15T23:11:34.785Z,94574.81
2023-04-15T23:14:03.147Z,94522.69
2023-04-15T23:16:32.729Z,94580.25
2023-04-15T23:19:00.897Z,94573.88
2023-04-15T23:21:29.171Z,94576.88
2023-04-15T23:23:58.756Z,94579.63
2023-04-15T23:26:27.474Z,94581.03
2023-04-15T23:28:55.520Z,94557.06
2023-04-15T23:31:23.680Z,94577.84
2023-04-15T23:33:53.041Z,94566.88
2023-04-15T23:36:21.638Z,94572.59
2023-04-15T23:38:50.026Z,94572.88
2023-04-15T23:41:20.664Z,94570.34
2023-04-15T23:43:48.668Z,94566.63
2023-04-15T23:46:17.132Z,94569.97
2023-04-15T23:48:45.286Z,94568.09
2023-04-15T23:51:16.941Z,94555.56
2023-04-15T23:53:44.978Z,94580.09
2023-04-15T23:56:12.957Z,94560.63
2023-04-15T23:58:41.117Z,94556.53
